sensor_id;sensor_type;location;lat;lon;timestamp;pressure;altitude;pressure_sealevel;temperature;humidity
18985;BME280;9626;52.552;13.436;2023-10-19T00:00:41;99967.25;;;6.92;100.00
18985;BME280;9626;52.552;13.436;2023-10-19T00:03:11;99955.91;;;6.90;100.00
18985;BME280;9626;52.552;13.436;2023-10-19T00:05:38;99954.97;;;6.93;100.00
18985;BME280;9626;52.552;13.436;2023-10-19T00:08:06;99952.50;;;6.84;100.00
18985;BME280;9626;52.552;13.436;2023-10-19T00:10:49;99958.63;;;6.84;100.00
18985;BME280;9626;52.552;13.436;2023-10-19T00:13:28;99960.50;;;6.76;100.00
18985;BME280;9626;52.552;13.436;2023-10-19T00:15:55;99958.88;;;6.69;100.00
18985;BME280;9626;52.552;13.436;2023-10-19T00:18:24;99959.59;;;6.79;100.00
18985;BME280;9626;52.552;13.436;2023-10-19T00:20:52;99953.53;;;6.75;100.00
18985;BME280;9626;52.552;13.436;2023-10-19T00:23:22;99947.28;;;6.81;100.00
18985;BME280;9626;52.552;13.436;2023-10-19T00:25:56;99943.78;;;6.79;100.00
18985;BME280;9626;52.552;13.436;2023-10-19T00:28:22;99942.06;;;6.79;100.00
18985;BME280;9626;52.552;13.436;2023-10-19T00:30:49;99930.63;;;6.82;100.00
18985;BME280;9626;52.552;13.436;2023-10-19T00:33:21;99933.25;;;6.82;100.00
18985;BME280;9626;52.552;13.436;2023-10-19T00:35:48;99914.81;;;6.80;100.00
18985;BME280;9626;52.552;13.436;2023-10-19T00:38:25;99907.72;;;6.85;100.00
18985;BME280;9626;52.552;13.436;2023-10-19T00:41:07;99894.59;;;6.84;100.00
18985;BME280;9626;52.552;13.436;2023-10-19T00:43:40;99897.25;;;6.82;100.00
18985;BME280;9626;52.552;13.436;2023-10-19T00:46:17;99890.50;;;6.67;100.00
18985;BME280;9626;52.552;13.436;2023-10-19T00:49:04;99883.56;;;6.62;100.00
18985;BME280;9626;52.552;13.436;2023-10-19T00:51:38;99876.53;;;6.62;100.00
18985;BME280;9626;52.552;13.436;2023-10-19T00:54:48;99880.09;;;6.59;100.00
18985;BME280;9626;52.552;13.436;2023-10-19T00:57:16;99860.91;;;6.53;100.00
18985;BME280;9626;52.552;13.436;2023-10-19T00:59:47;99860.03;;;6.52;100.00
18985;BME280;9626;52.552;13.436;2023-10-19T01:02:21;99863.53;;;6.53;100.00
18985;BME280;9626;52.552;13.436;2023-10-19T01:04:50;99859.19;;;6.50;100.00
18985;BME280;9626;52.552;13.436;2023-10-19T01:07:25;99859.22;;;6.49;100.00
18985;BME280;9626;52.552;13.436;2023-10-19T01:09:53;99863.53;;;6.53;100.00
18985;BME280;9626;52.552;13.436;2023-10-19T01:12:23;99863.53;;;6.53;100.00
18985;BME280;9626;52.552;13.436;2023-10-19T01:17:32;99851.22;;;6.55;100.00
18985;BME280;9626;52.552;13.436;2023-10-19T01:20:00;99854.75;;;6.54;100.00
18985;BME280;9626;52.552;13.436;2023-10-19T01:22:28;99845.16;;;6.51;100.00
18985;BME280;9626;52.552;13.436;2023-10-19T01:24:54;99836.44;;;6.46;100.00
18985;BME280;9626;52.552;13.436;2023-10-19T01:27:21;99836.56;;;6.40;100.00
18985;BME280;9626;52.552;13.436;2023-10-19T01:29:47;99830.41;;;6.42;100.00
18985;BME280;9626;52.552;13.436;2023-10-19T01:32:13;99822.41;;;6.47;100.00
18985;BME280;9626;52.552;13.436;2023-10-19T01:34:41;99819.81;;;6.46;100.00
18985;BME280;9626;52.552;13.436;2023-10-19T01:37:07;99818.88;;;6.50;100.00
18985;BME280;9626;52.552;13.436;2023-10-19T01:39:37;99813.59;;;6.50;100.00
18985;BME280;9626;52.552;13.436;2023-10-19T01:42:04;99814.47;;;6.52;100.00
18985;BME280;9626;52.552;13.436;2023-10-19T01:44:31;99810.91;;;6.53;100.00
18985;BME280;9626;52.552;13.436;2023-10-19T01:46:57;99799.56;;;6.51;100.00
18985;BME280;9626;52.552;13.436;2023-10-19T01:49:26;99794.47;;;6.41;100.00
18985;BME280;9626;52.552;13.436;2023-10-19T01:51:53;99790.81;;;6.49;100.00
18985;BME280;9626;52.552;13.436;2023-10-19T01:54:23;99785.53;;;6.50;100.00
18985;BME280;9626;52.552;13.436;2023-10-19T01:56:54;99777.66;;;6.52;100.00
18985;BME280;9626;52.552;13.436;2023-10-19T01:59:27;99764.50;;;6.50;100.00
18985;BME280;9626;52.552;13.436;2023-10-19T02:01:54;99757.47;;;6.52;100.00
18985;BME280;9626;52.552;13.436;2023-10-19T02:04:20;99755.69;;;6.53;100.00
18985;BME280;9626;52.552;13.436;2023-10-19T02:06:47;99746.19;;;6.46;100.00
18985;BME280;9626;52.552;13.436;2023-10-19T02:09:15;99748.78;;;6.47;100.00
18985;BME280;9626;52.552;13.436;2023-10-19T02:11:40;99753.34;;;6.37;100.00
18985;BME280;9626;52.552;13.436;2023-10-19T02:14:08;99755.97;;;6.37;100.00
18985;BME280;9626;52.552;13.436;2023-10-19T02:16:43;99749.91;;;6.32;100.00
18985;BME280;9626;52.552;13.436;2023-10-19T02:19:11;99752.44;;;6.38;100.00
18985;BME280;9626;52.552;13.436;2023-10-19T02:21:37;99753.19;;;6.47;100.00
18985;BME280;9626;52.552;13.436;2023-10-19T02:24:07;99754.94;;;6.45;100.00
18985;BME280;9626;52.552;13.436;2023-10-19T02:26:34;99745.47;;;6.36;100.00
18985;BME280;9626;52.552;13.436;2023-10-19T02:29:03;99743.72;;;6.35;100.00
18985;BME280;9626;52.552;13.436;2023-10-19T02:31:34;99730.63;;;6.33;100.00
18985;BME280;9626;52.552;13.436;2023-10-19T02:34:03;99731.31;;;6.43;100.00
18985;BME280;9626;52.552;13.436;2023-10-19T02:36:31;99725.19;;;6.42;100.00
18985;BME280;9626;52.552;13.436;2023-10-19T02:38:58;99720.72;;;6.46;100.00
18985;BME280;9626;52.552;13.436;2023-10-19T02:41:28;99726.06;;;6.43;100.00
18985;BME280;9626;52.552;13.436;2023-10-19T02:43:54;99724.44;;;6.36;100.00
18985;BME280;9626;52.552;13.436;2023-10-19T02:46:50;99717.44;;;6.35;100.00
18985;BME280;9626;52.552;13.436;2023-10-19T02:49:19;99719.25;;;6.33;100.00
18985;BME280;9626;52.552;13.436;2023-10-19T02:51:47;99715.63;;;6.38;100.00
18985;BME280;9626;52.552;13.436;2023-10-19T02:54:18;99711.16;;;6.43;100.00
18985;BME280;9626;52.552;13.436;2023-10-19T02:56:56;99706.66;;;6.49;100.00
18985;BME280;9626;52.552;13.436;2023-10-19T02:59:26;99698.91;;;6.42;100.00
18985;BME280;9626;52.552;13.436;2023-10-19T03:01:58;99698.91;;;6.42;100.00
18985;BME280;9626;52.552;13.436;2023-10-19T03:04:33;99684.91;;;6.40;100.00
18985;BME280;9626;52.552;13.436;2023-10-19T03:07:05;99696.31;;;6.41;100.00
18985;BME280;9626;52.552;13.436;2023-10-19T03:09:33;99679.59;;;6.43;100.00
18985;BME280;9626;52.552;13.436;2023-10-19T03:12:02;99686.53;;;6.48;100.00
18985;BME280;9626;52.552;13.436;2023-10-19T03:14:30;99678.56;;;6.52;100.00
18985;BME280;9626;52.552;13.436;2023-10-19T03:16:59;99680.38;;;6.49;100.00
18985;BME280;9626;52.552;13.436;2023-10-19T03:19:26;99678.53;;;6.54;100.00
18985;BME280;9626;52.552;13.436;2023-10-19T03:21:53;99672.41;;;6.53;100.00
18985;BME280;9626;52.552;13.436;2023-10-19T03:24:21;99665.50;;;6.48;100.00
18985;BME280;9626;52.552;13.436;2023-10-19T03:27:09;99661.13;;;6.47;100.00
18985;BME280;9626;52.552;13.436;2023-10-19T03:29:47;99669.03;;;6.47;100.00
18985;BME280;9626;52.552;13.436;2023-10-19T03:32:19;99664.59;;;6.49;100.00
18985;BME280;9626;52.552;13.436;2023-10-19T03:34:55;99649.59;;;6.54;100.00
18985;BME280;9626;52.552;13.436;2023-10-19T03:37:23;99654.88;;;6.52;100.00
18985;BME280;9626;52.552;13.436;2023-10-19T03:39:51;99654.03;;;6.52;100.00
18985;BME280;9626;52.552;13.436;2023-10-19T03:42:18;99654.94;;;6.49;100.00
18985;BME280;9626;52.552;13.436;2023-10-19T03:44:46;99643.63;;;6.46;100.00
18985;BME280;9626;52.552;13.436;2023-10-19T03:47:16;99644.41;;;6.51;100.00
18985;BME280;9626;52.552;13.436;2023-10-19T03:49:46;99627.69;;;6.53;100.00
18985;BME280;9626;52.552;13.436;2023-10-19T03:52:13;99621.53;;;6.53;100.00
18985;BME280;9626;52.552;13.436;2023-10-19T03:54:39;99611.09;;;6.50;100.00
18985;BME280;9626;52.552;13.436;2023-10-19T03:57:11;99615.50;;;6.49;100.00
18985;BME280;9626;52.552;13.436;2023-10-19T03:59:41;99611.94;;;6.50;100.00
18985;BME280;9626;52.552;13.436;2023-10-19T04:02:08;99618.09;;;6.51;100.00
18985;BME280;9626;52.552;13.436;2023-10-19T04:04:45;99611.09;;;6.50;100.00
18985;BME280;9626;52.552;13.436;2023-10-19T04:07:15;99609.34;;;6.49;100.00
18985;BME280;9626;52.552;13.436;2023-10-19T04:09:44;99611.34;;;6.37;100.00
18985;BME280;9626;52.552;13.436;2023-10-19T04:12:28;99599.03;;;6.38;100.00
18985;BME280;9626;52.552;13.436;2023-10-19T04:14:58;99613.09;;;6.38;100.00
18985;BME280;9626;52.552;13.436;2023-10-19T04:17:43;99606.91;;;6.41;100.00
18985;BME280;9626;52.552;13.436;2023-10-19T04:20:17;99605.06;;;6.45;100.00
18985;BME280;9626;52.552;13.436;2023-10-19T04:22:47;99599.16;;;6.33;100.00
18985;BME280;9626;52.552;13.436;2023-10-19T04:25:15;99600.81;;;6.37;100.00
18985;BME280;9626;52.552;13.436;2023-10-19T04:27:55;99588.56;;;6.36;100.00
18985;BME280;9626;52.552;13.436;2023-10-19T04:30:22;99589.28;;;6.45;100.00
18985;BME280;9626;52.552;13.436;2023-10-19T04:32:50;99590.13;;;6.47;100.00
18985;BME280;9626;52.552;13.436;2023-10-19T04:35:17;99585.72;;;6.47;100.00
18985;BME280;9626;52.552;13.436;2023-10-19T04:37:52;99585.75;;;6.46;100.00
18985;BME280;9626;52.552;13.436;2023-10-19T04:40:22;99576.19;;;6.41;100.00
18985;BME280;9626;52.552;13.436;2023-10-19T04:42:52;99573.69;;;6.35;100.00
18985;BME280;9626;52.552;13.436;2023-10-19T04:45:19;99570.25;;;6.32;100.00
18985;BME280;9626;52.552;13.436;2023-10-19T04:47:45;99571.03;;;6.37;100.00
18985;BME280;9626;52.552;13.436;2023-10-19T04:50:12;99565.78;;;6.35;100.00
18985;BME280;9626;52.552;13.436;2023-10-19T04:52:38;99565.84;;;6.32;100.00
18985;BME280;9626;52.552;13.436;2023-10-19T04:55:05;99555.41;;;6.29;100.00
18985;BME280;9626;52.552;13.436;2023-10-19T04:57:31;99552.75;;;6.31;100.00
18985;BME280;9626;52.552;13.436;2023-10-19T04:59:58;99545.72;;;6.33;100.00
18985;BME280;9626;52.552;13.436;2023-10-19T05:02:24;99545.72;;;6.31;100.00
18985;BME280;9626;52.552;13.436;2023-10-19T05:04:50;99550.25;;;6.23;100.00
18985;BME280;9626;52.552;13.436;2023-10-19T05:07:16;99548.59;;;6.19;100.00
18985;BME280;9626;52.552;13.436;2023-10-19T05:09:45;99548.56;;;6.22;100.00
18985;BME280;9626;52.552;13.436;2023-10-19T05:12:12;99545.88;;;6.23;100.00
18985;BME280;9626;52.552;13.436;2023-10-19T05:14:41;99546.16;;;6.09;100.00
18985;BME280;9626;52.552;13.436;2023-10-19T05:17:08;99541.72;;;6.12;100.00
18985;BME280;9626;52.552;13.436;2023-10-19T05:19:39;99542.56;;;6.15;100.00
18985;BME280;9626;52.552;13.436;2023-10-19T05:22:08;99538.06;;;6.20;100.00
18985;BME280;9626;52.552;13.436;2023-10-19T05:24:35;99545.06;;;6.20;100.00
18985;BME280;9626;52.552;13.436;2023-10-19T05:27:01;99542.75;;;6.04;100.00
18985;BME280;9626;52.552;13.436;2023-10-19T05:29:31;99540.06;;;6.07;100.00
18985;BME280;9626;52.552;13.436;2023-10-19T05:31:58;99528.59;;;6.12;100.00
18985;BME280;9626;52.552;13.436;2023-10-19T05:34:24;99540.06;;;6.07;100.00
18985;BME280;9626;52.552;13.436;2023-10-19T05:36:52;99535.63;;;6.11;100.00
18985;BME280;9626;52.552;13.436;2023-10-19T05:39:20;99540.88;;;6.11;100.00
18985;BME280;9626;52.552;13.436;2023-10-19T05:41:54;99540.00;;;6.11;100.00
18985;BME280;9626;52.552;13.436;2023-10-19T05:44:20;99539.09;;;6.12;100.00
18985;BME280;9626;52.552;13.436;2023-10-19T05:46:46;99541.47;;;6.24;100.00
18985;BME280;9626;52.552;13.436;2023-10-19T05:49:12;99549.25;;;6.30;100.00
18985;BME280;9626;52.552;13.436;2023-10-19T05:51:38;99544.03;;;6.27;100.00
18985;BME280;9626;52.552;13.436;2023-10-19T05:54:05;99548.72;;;6.13;100.00
18985;BME280;9626;52.552;13.436;2023-10-19T05:56:31;99547.94;;;6.07;100.00
18985;BME280;9626;52.552;13.436;2023-10-19T05:59:00;99552.41;;;6.02;100.00
18985;BME280;9626;52.552;13.436;2023-10-19T06:01:26;99549.84;;;5.99;100.00
18985;BME280;9626;52.552;13.436;2023-10-19T06:03:53;99549.84;;;5.99;100.00
18985;BME280;9626;52.552;13.436;2023-10-19T06:06:19;99549.88;;;5.98;100.00
18985;BME280;9626;52.552;13.436;2023-10-19T06:08:46;99538.50;;;5.97;100.00
18985;BME280;9626;52.552;13.436;2023-10-19T06:11:12;99538.53;;;5.94;100.00
18985;BME280;9626;52.552;13.436;2023-10-19T06:13:39;99535.13;;;5.89;100.00
18985;BME280;9626;52.552;13.436;2023-10-19T06:16:05;99534.16;;;5.93;100.00
18985;BME280;9626;52.552;13.436;2023-10-19T06:18:31;99520.00;;;6.03;100.00
18985;BME280;9626;52.552;13.436;2023-10-19T06:20:57;99512.22;;;5.96;100.00
18985;BME280;9626;52.552;13.436;2023-10-19T06:23:24;99502.75;;;5.87;100.00
18985;BME280;9626;52.552;13.436;2023-10-19T06:25:50;99502.13;;;5.75;100.00
18985;BME280;9626;52.552;13.436;2023-10-19T06:28:19;99502.16;;;5.72;100.00
18985;BME280;9626;52.552;13.436;2023-10-19T06:30:45;99511.00;;;5.67;100.00
18985;BME280;9626;52.552;13.436;2023-10-19T06:33:15;99519.72;;;5.70;100.00
18985;BME280;9626;52.552;13.436;2023-10-19T06:35:41;99522.31;;;5.72;100.00
18985;BME280;9626;52.552;13.436;2023-10-19T06:38:07;99516.56;;;5.50;100.00
18985;BME280;9626;52.552;13.436;2023-10-19T06:40:35;99512.16;;;5.52;100.00
18985;BME280;9626;52.552;13.436;2023-10-19T06:43:04;99506.78;;;5.59;100.00
18985;BME280;9626;52.552;13.436;2023-10-19T06:45:32;99499.75;;;5.60;100.00
18985;BME280;9626;52.552;13.436;2023-10-19T06:47:58;99497.13;;;5.60;100.00
18985;BME280;9626;52.552;13.436;2023-10-19T06:50:26;99492.00;;;5.54;100.00
18985;BME280;9626;52.552;13.436;2023-10-19T06:52:52;99490.97;;;5.61;100.00
18985;BME280;9626;52.552;13.436;2023-10-19T06:55:20;99491.78;;;5.66;100.00
18985;BME280;9626;52.552;13.436;2023-10-19T06:57:53;99479.69;;;5.56;100.00
18985;BME280;9626;52.552;13.436;2023-10-19T07:00:21;99475.22;;;5.61;100.00
18985;BME280;9626;52.552;13.436;2023-10-19T07:02:49;99476.00;;;5.66;100.00
18985;BME280;9626;52.552;13.436;2023-10-19T07:05:19;99475.78;;;5.79;100.00
18985;BME280;9626;52.552;13.436;2023-10-19T07:08:06;99465.91;;;5.90;100.00
18985;BME280;9626;52.552;13.436;2023-10-19T07:10:32;99472.97;;;5.88;100.00
18985;BME280;9626;52.552;13.436;2023-10-19T07:13:00;99475.63;;;5.85;100.00
18985;BME280;9626;52.552;13.436;2023-10-19T07:15:26;99466.09;;;5.82;100.00
18985;BME280;9626;52.552;13.436;2023-10-19T07:17:54;99459.78;;;5.91;100.00
18985;BME280;9626;52.552;13.436;2023-10-19T07:20:20;99455.28;;;5.96;100.00
18985;BME280;9626;52.552;13.436;2023-10-19T07:22:59;99449.03;;;6.03;100.00
18985;BME280;9626;52.552;13.436;2023-10-19T07:25:29;99455.16;;;6.05;100.00
18985;BME280;9626;52.552;13.436;2023-10-19T07:27:57;99455.97;;;6.07;100.00
18985;BME280;9626;52.552;13.436;2023-10-19T07:30:25;99460.38;;;6.07;100.00
18985;BME280;9626;52.552;13.436;2023-10-19T07:32:52;99455.97;;;6.07;100.00
18985;BME280;9626;52.552;13.436;2023-10-19T07:35:25;99449.88;;;6.05;100.00
18985;BME280;9626;52.552;13.436;2023-10-19T07:37:56;99449.88;;;6.05;100.00
18985;BME280;9626;52.552;13.436;2023-10-19T07:40:22;99460.19;;;6.15;100.00
18985;BME280;9626;52.552;13.436;2023-10-19T07:42:49;99467.09;;;6.20;100.00
18985;BME280;9626;52.552;13.436;2023-10-19T07:45:18;99467.09;;;6.19;100.00
18985;BME280;9626;52.552;13.436;2023-10-19T07:47:44;99468.06;;;6.15;100.00
18985;BME280;9626;52.552;13.436;2023-10-19T07:50:11;99475.00;;;6.19;100.00
18985;BME280;9626;52.552;13.436;2023-10-19T07:52:45;99473.31;;;6.15;100.00
18985;BME280;9626;52.552;13.436;2023-10-19T07:55:14;99477.81;;;6.11;100.00
18985;BME280;9626;52.552;13.436;2023-10-19T07:57:41;99472.63;;;6.06;100.00
18985;BME280;9626;52.552;13.436;2023-10-19T08:00:09;99461.16;;;6.11;100.00
18985;BME280;9626;52.552;13.436;2023-10-19T08:02:37;99459.25;;;6.17;100.00
18985;BME280;9626;52.552;13.436;2023-10-19T08:05:15;99462.66;;;6.22;100.00
18985;BME280;9626;52.552;13.436;2023-10-19T08:07:44;99458.16;;;6.28;100.00
18985;BME280;9626;52.552;13.436;2023-10-19T08:10:14;99466.03;;;6.29;100.00
18985;BME280;9626;52.552;13.436;2023-10-19T08:12:42;99466.84;;;6.33;100.00
18985;BME280;9626;52.552;13.436;2023-10-19T08:15:12;99454.50;;;6.35;100.00
18985;BME280;9626;52.552;13.436;2023-10-19T08:17:38;99450.09;;;6.35;100.00
18985;BME280;9626;52.552;13.436;2023-10-19T08:20:09;99462.44;;;6.33;100.00
18985;BME280;9626;52.552;13.436;2023-10-19T08:22:45;99456.16;;;6.39;100.00
18985;BME280;9626;52.552;13.436;2023-10-19T08:25:14;99454.63;;;6.30;100.00
18985;BME280;9626;52.552;13.436;2023-10-19T08:27:46;99441.50;;;6.29;100.00
18985;BME280;9626;52.552;13.436;2023-10-19T08:30:19;99437.28;;;6.20;100.00
18985;BME280;9626;52.552;13.436;2023-10-19T08:32:47;99431.88;;;6.28;100.00
18985;BME280;9626;52.552;13.436;2023-10-19T08:35:19;99430.91;;;6.32;100.00
18985;BME280;9626;52.552;13.436;2023-10-19T08:37:55;99427.31;;;6.36;100.00
18985;BME280;9626;52.552;13.436;2023-10-19T08:40:25;99423.59;;;6.45;100.00
18985;BME280;9626;52.552;13.436;2023-10-19T08:42:52;99429.78;;;6.42;100.00
18985;BME280;9626;52.552;13.436;2023-10-19T08:45:19;99425.41;;;6.42;100.00
18985;BME280;9626;52.552;13.436;2023-10-19T08:47:54;99407.97;;;6.38;100.00
18985;BME280;9626;52.552;13.436;2023-10-19T08:50:25;99402.56;;;6.45;100.00
18985;BME280;9626;52.552;13.436;2023-10-19T08:52:53;99404.34;;;6.44;100.00
18985;BME280;9626;52.552;13.436;2023-10-19T08:55:19;99403.28;;;6.51;100.00
18985;BME280;9626;52.552;13.436;2023-10-19T08:57:49;99410.13;;;6.58;100.00
18985;BME280;9626;52.552;13.436;2023-10-19T09:00:16;99401.28;;;6.63;100.00
18985;BME280;9626;52.552;13.436;2023-10-19T09:02:45;99411.13;;;6.53;100.00
18985;BME280;9626;52.552;13.436;2023-10-19T09:05:12;99411.81;;;6.61;100.00
18985;BME280;9626;52.552;13.436;2023-10-19T09:07:49;99420.44;;;6.68;100.00
18985;BME280;9626;52.552;13.436;2023-10-19T09:10:27;99412.25;;;6.80;100.00
18985;BME280;9626;52.552;13.436;2023-10-19T09:13:06;99410.28;;;6.90;100.00
18985;BME280;9626;52.552;13.436;2023-10-19T09:15:39;99412.88;;;6.91;100.00
18985;BME280;9626;52.552;13.436;2023-10-19T09:18:20;99421.69;;;6.89;100.00
18985;BME280;9626;52.552;13.436;2023-10-19T09:20:49;99418.97;;;6.92;100.00
18985;BME280;9626;52.552;13.436;2023-10-19T09:23:25;99410.19;;;6.93;100.00
18985;BME280;9626;52.552;13.436;2023-10-19T09:25:57;99392.66;;;6.92;100.00
18985;BME280;9626;52.552;13.436;2023-10-19T09:28:24;99395.22;;;6.95;100.00
18985;BME280;9626;52.552;13.436;2023-10-19T09:30:51;99381.16;;;6.96;100.00
18985;BME280;9626;52.552;13.436;2023-10-19T09:33:17;99383.66;;;7.02;100.00
18985;BME280;9626;52.552;13.436;2023-10-19T09:35:47;99380.19;;;7.00;100.00
18985;BME280;9626;52.552;13.436;2023-10-19T09:38:15;99377.44;;;7.05;100.00
18985;BME280;9626;52.552;13.436;2023-10-19T09:40:42;99379.16;;;7.06;100.00
18985;BME280;9626;52.552;13.436;2023-10-19T09:43:15;99377.25;;;7.11;100.00
18985;BME280;9626;52.552;13.436;2023-10-19T09:45:46;99375.44;;;7.15;100.00
18985;BME280;9626;52.552;13.436;2023-10-19T09:48:18;99385.06;;;7.14;100.00
18985;BME280;9626;52.552;13.436;2023-10-19T09:50:51;99384.19;;;7.15;100.00
18985;BME280;9626;52.552;13.436;2023-10-19T09:53:24;99386.84;;;7.14;100.00
18985;BME280;9626;52.552;13.436;2023-10-19T09:55:56;99386.00;;;7.13;100.00
18985;BME280;9626;52.552;13.436;2023-10-19T09:58:27;99380.59;;;7.18;100.00
18985;BME280;9626;52.552;13.436;2023-10-19T10:00:55;99386.91;;;7.12;100.00
18985;BME280;9626;52.552;13.436;2023-10-19T10:03:42;99380.88;;;7.07;100.00
18985;BME280;9626;52.552;13.436;2023-10-19T10:06:09;99378.38;;;7.02;100.00
18985;BME280;9626;52.552;13.436;2023-10-19T10:08:36;99372.09;;;7.08;100.00
18985;BME280;9626;52.552;13.436;2023-10-19T10:11:20;99364.94;;;7.13;100.00
18985;BME280;9626;52.552;13.436;2023-10-19T10:13:47;99364.16;;;7.09;100.00
18985;BME280;9626;52.552;13.436;2023-10-19T10:16:18;99364.91;;;7.15;100.00
18985;BME280;9626;52.552;13.436;2023-10-19T10:18:46;99371.06;;;7.14;100.00
18985;BME280;9626;52.552;13.436;2023-10-19T10:21:16;99366.78;;;7.09;100.00
18985;BME280;9626;52.552;13.436;2023-10-19T10:23:44;99373.69;;;7.14;100.00
18985;BME280;9626;52.552;13.436;2023-10-19T10:26:12;99365.69;;;7.17;100.00
18985;BME280;9626;52.552;13.436;2023-10-19T10:28:46;99370.97;;;7.17;100.00
18985;BME280;9626;52.552;13.436;2023-10-19T10:31:21;99361.22;;;7.20;100.00
18985;BME280;9626;52.552;13.436;2023-10-19T10:33:52;99356.91;;;7.18;100.00
18985;BME280;9626;52.552;13.436;2023-10-19T10:36:20;99356.91;;;7.18;100.00
18985;BME280;9626;52.552;13.436;2023-10-19T10:38:51;99342.06;;;7.15;100.00
18985;BME280;9626;52.552;13.436;2023-10-19T10:41:24;99332.66;;;7.06;100.00
18985;BME280;9626;52.552;13.436;2023-10-19T10:43:58;99337.22;;;7.00;100.00
18985;BME280;9626;52.552;13.436;2023-10-19T10:46:26;99333.03;;;6.91;100.00
18985;BME280;9626;52.552;13.436;2023-10-19T10:48:53;99325.28;;;6.86;100.00
18985;BME280;9626;52.552;13.436;2023-10-19T10:51:23;99326.22;;;6.84;100.00
18985;BME280;9626;52.552;13.436;2023-10-19T10:53:52;99322.78;;;6.82;100.00
18985;BME280;9626;52.552;13.436;2023-10-19T10:56:20;99326.22;;;6.84;100.00
18985;BME280;9626;52.552;13.436;2023-10-19T10:58:49;99324.47;;;6.83;100.00
18985;BME280;9626;52.552;13.436;2023-10-19T11:01:31;99334.16;;;6.82;100.00
18985;BME280;9626;52.552;13.436;2023-10-19T11:04:09;99338.69;;;6.75;100.00
18985;BME280;9626;52.552;13.436;2023-10-19T11:06:47;99333.31;;;6.80;100.00
18985;BME280;9626;52.552;13.436;2023-10-19T11:09:14;99321.81;;;6.84;100.00
18985;BME280;9626;52.552;13.436;2023-10-19T11:11:45;99322.59;;;6.88;100.00
18985;BME280;9626;52.552;13.436;2023-10-19T11:14:11;99320.81;;;6.88;100.00
18985;BME280;9626;52.552;13.436;2023-10-19T11:16:37;99321.69;;;6.89;100.00
18985;BME280;9626;52.552;13.436;2023-10-19T11:19:05;99319.22;;;6.83;100.00
18985;BME280;9626;52.552;13.436;2023-10-19T11:21:31;99332.50;;;6.78;100.00
18985;BME280;9626;52.552;13.436;2023-10-19T11:23:58;99334.16;;;6.82;100.00
18985;BME280;9626;52.552;13.436;2023-10-19T11:26:26;99324.47;;;6.83;100.00
18985;BME280;9626;52.552;13.436;2023-10-19T11:29:02;99320.88;;;6.87;100.00
18985;BME280;9626;52.552;13.436;2023-10-19T11:31:30;99323.31;;;6.94;100.00
18985;BME280;9626;52.552;13.436;2023-10-19T11:34:03;99315.44;;;6.93;100.00
18985;BME280;9626;52.552;13.436;2023-10-19T11:36:30;99320.72;;;6.93;100.00
18985;BME280;9626;52.552;13.436;2023-10-19T11:38:56;99308.50;;;6.90;100.00
18985;BME280;9626;52.552;13.436;2023-10-19T11:41:22;99305.03;;;6.90;100.00
18985;BME280;9626;52.552;13.436;2023-10-19T11:43:49;99297.84;;;6.95;100.00
18985;BME280;9626;52.552;13.436;2023-10-19T11:46:16;99301.41;;;6.94;100.00
18985;BME280;9626;52.552;13.436;2023-10-19T11:48:48;99295.16;;;6.98;100.00
18985;BME280;9626;52.552;13.436;2023-10-19T11:51:14;99292.66;;;6.92;100.00
18985;BME280;9626;52.552;13.436;2023-10-19T11:53:42;99290.94;;;6.91;100.00
18985;BME280;9626;52.552;13.436;2023-10-19T11:56:10;99290.03;;;6.92;100.00
18985;BME280;9626;52.552;13.436;2023-10-19T11:58:38;99286.41;;;6.96;100.00
18985;BME280;9626;52.552;13.436;2023-10-19T12:01:08;99289.94;;;6.95;100.00
18985;BME280;9626;52.552;13.436;2023-10-19T12:03:38;99282.19;;;6.90;100.00
18985;BME280;9626;52.552;13.436;2023-10-19T12:06:10;99278.63;;;6.93;100.00
18985;BME280;9626;52.552;13.436;2023-10-19T12:08:37;99292.53;;;6.97;100.00
18985;BME280;9626;52.552;13.436;2023-10-19T12:11:04;99282.03;;;6.95;100.00
18985;BME280;9626;52.552;13.436;2023-10-19T12:13:31;99283.03;;;6.91;100.00
18985;BME280;9626;52.552;13.436;2023-10-19T12:15:58;99290.88;;;6.94;100.00
18985;BME280;9626;52.552;13.436;2023-10-19T12:18:25;99295.94;;;7.00;100.00
18985;BME280;9626;52.552;13.436;2023-10-19T12:20:54;99284.63;;;6.97;100.00
18985;BME280;9626;52.552;13.436;2023-10-19T12:23:25;99288.19;;;6.96;100.00
18985;BME280;9626;52.552;13.436;2023-10-19T12:25:52;99290.88;;;6.94;100.00
18985;BME280;9626;52.552;13.436;2023-10-19T12:28:19;99275.97;;;6.93;100.00
18985;BME280;9626;52.552;13.436;2023-10-19T12:30:45;99282.13;;;6.92;100.00
18985;BME280;9626;52.552;13.436;2023-10-19T12:33:11;99275.78;;;6.99;100.00
18985;BME280;9626;52.552;13.436;2023-10-19T12:35:41;99270.47;;;7.02;100.00
18985;BME280;9626;52.552;13.436;2023-10-19T12:38:12;99266.09;;;7.01;100.00
18985;BME280;9626;52.552;13.436;2023-10-19T12:40:46;99259.91;;;7.04;100.00
18985;BME280;9626;52.552;13.436;2023-10-19T12:43:14;99267.84;;;7.02;100.00
18985;BME280;9626;52.552;13.436;2023-10-19T12:45:42;99264.22;;;7.06;100.00
18985;BME280;9626;52.552;13.436;2023-10-19T12:48:09;99271.47;;;6.98;100.00
18985;BME280;9626;52.552;13.436;2023-10-19T12:50:37;99269.69;;;6.99;100.00
18985;BME280;9626;52.552;13.436;2023-10-19T12:53:04;99270.63;;;6.96;100.00
18985;BME280;9626;52.552;13.436;2023-10-19T12:55:30;99275.94;;;6.94;100.00
18985;BME280;9626;52.552;13.436;2023-10-19T12:57:57;99282.03;;;6.95;100.00
18985;BME280;9626;52.552;13.436;2023-10-19T13:00:25;99274.91;;;7.00;100.00
18985;BME280;9626;52.552;13.436;2023-10-19T13:03:12;99275.53;;;7.08;100.00
18985;BME280;9626;52.552;13.436;2023-10-19T13:05:43;99274.75;;;7.06;100.00
18985;BME280;9626;52.552;13.436;2023-10-19T13:08:11;99276.63;;;7.01;100.00
18985;BME280;9626;52.552;13.436;2023-10-19T13:10:46;99268.84;;;6.97;100.00
18985;BME280;9626;52.552;13.436;2023-10-19T13:13:14;99264.56;;;6.94;100.00
18985;BME280;9626;52.552;13.436;2023-10-19T13:15:43;99272.47;;;6.92;100.00